Time;durP1;ratioP1;P1;durP2;ratioP2;P2;SDS_P1;SDS_P2;PMS_P1;PMS_P2;Temp;Humidity;BMP_temperature;BMP_pressure;BME280_temperature;BME280_humidity;BME280_pressure;Samples;Min_cycle;Max_cycle;Signal;HPM_P1;HPM_P2
2023/10/25 00:00:00;;;;;;;12.38;7.60;;;10.30;99.90;;;;;;4995021;28;20019;-62
2023/10/25 00:02:25;;;;;;;8.82;7.95;;;10.20;99.90;;;;;;4996828;28;20506;-62
2023/10/25 00:04:55;;;;;;;7.47;6.80;;;10.20;99.90;;;;;;4997111;28;20034;-63
2023/10/25 00:07:21;;;;;;;8.38;6.68;;;10.10;99.90;;;;;;4997135;28;20026;-62
2023/10/25 00:09:46;;;;;;;12.02;7.30;;;10.10;99.90;;;;;;4998051;28;20131;-62
2023/10/25 00:12:12;;;;;;;11.07;8.45;;;10.00;99.90;;;;;;4996824;28;20060;-63
2023/10/25 00:14:38;;;;;;;11.38;8.85;;;10.00;99.90;;;;;;4998837;28;20041;-62
2023/10/25 00:17:03;;;;;;;10.38;7.57;;;9.90;99.90;;;;;;4996793;28;20034;-62
2023/10/25 00:19:29;;;;;;;10.10;6.78;;;9.90;99.90;;;;;;4995647;28;20041;-62
2023/10/25 00:21:55;;;;;;;8.02;7.22;;;9.80;99.90;;;;;;4995484;28;20049;-62
2023/10/25 00:24:20;;;;;;;10.88;7.85;;;9.80;99.90;;;;;;4994915;28;20102;-62
2023/10/25 00:26:46;;;;;;;11.20;8.60;;;9.80;99.90;;;;;;4997922;28;20038;-61
2023/10/25 00:29:11;;;;;;;9.90;8.80;;;9.80;99.90;;;;;;4996623;28;20058;-62
2023/10/25 00:31:37;;;;;;;15.43;9.23;;;9.70;99.90;;;;;;4996258;28;20088;-62
2023/10/25 00:34:03;;;;;;;14.77;9.77;;;9.70;99.90;;;;;;4994820;28;20544;-62
2023/10/25 00:36:29;;;;;;;11.45;9.18;;;9.70;99.90;;;;;;4997541;28;20035;-62
2023/10/25 00:38:55;;;;;;;10.43;8.82;;;9.70;99.90;;;;;;4997208;28;20027;-61
2023/10/25 00:41:20;;;;;;;12.57;8.65;;;9.70;99.90;;;;;;5006757;28;20076;-62
2023/10/25 00:43:46;;;;;;;14.50;8.63;;;9.60;99.90;;;;;;4996960;28;20045;-62
2023/10/25 00:46:17;;;;;;;11.35;8.25;;;9.60;99.90;;;;;;4997409;28;20035;-62
2023/10/25 00:48:45;;;;;;;12.35;8.63;;;9.60;99.90;;;;;;4997622;28;20069;-62
2023/10/25 00:51:12;;;;;;;9.32;8.40;;;9.60;99.90;;;;;;4996390;28;20054;-61
2023/10/25 00:53:41;;;;;;;13.15;8.18;;;9.70;99.90;;;;;;4993469;28;20034;-62
2023/10/25 00:56:11;;;;;;;14.07;8.48;;;9.60;99.90;;;;;;4996097;28;20119;-62
2023/10/25 00:58:41;;;;;;;10.02;7.43;;;9.70;99.90;;;;;;4999105;28;20034;-62
2023/10/25 01:01:06;;;;;;;13.70;7.05;;;9.70;99.90;;;;;;4997546;28;20023;-62
2023/10/25 01:03:32;;;;;;;9.43;7.40;;;9.70;99.90;;;;;;5004445;28;20401;-61
2023/10/25 01:05:59;;;;;;;9.05;7.70;;;9.70;99.90;;;;;;4998005;28;20112;-61
2023/10/25 01:08:25;;;;;;;14.98;7.38;;;9.70;99.90;;;;;;5001277;28;20041;-62
2023/10/25 01:10:52;;;;;;;8.57;7.65;;;9.70;99.90;;;;;;4998330;28;20085;-62
2023/10/25 01:13:19;;;;;;;9.55;8.60;;;9.70;99.90;;;;;;5000473;28;20442;-62
2023/10/25 01:15:45;;;;;;;8.18;6.47;;;9.70;99.90;;;;;;4999075;28;20034;-62
2023/10/25 01:18:11;;;;;;;9.90;7.47;;;9.70;99.90;;;;;;5000145;28;20766;-62
2023/10/25 01:20:36;;;;;;;14.20;8.30;;;9.70;99.90;;;;;;5001602;28;20057;-62
2023/10/25 01:23:02;;;;;;;10.95;7.75;;;9.70;99.90;;;;;;5000890;28;20038;-62
2023/10/25 01:25:28;;;;;;;15.05;8.60;;;9.70;99.90;;;;;;4997818;28;20112;-62
2023/10/25 01:27:54;;;;;;;12.05;9.30;;;9.70;99.90;;;;;;5000645;28;20141;-62
2023/10/25 01:30:20;;;;;;;10.40;9.25;;;9.60;99.90;;;;;;4999314;28;20037;-62
2023/10/25 01:32:46;;;;;;;16.63;9.20;;;9.60;99.90;;;;;;5003101;28;20038;-61
2023/10/25 01:35:11;;;;;;;13.75;9.77;;;9.60;99.90;;;;;;5001386;28;20067;-63
2023/10/25 01:37:37;;;;;;;10.45;8.73;;;9.60;99.90;;;;;;4990851;28;20037;-62
2023/10/25 01:40:04;;;;;;;10.55;9.20;;;9.60;99.90;;;;;;4999104;28;20022;-62
2023/10/25 01:42:30;;;;;;;10.73;8.85;;;9.60;99.90;;;;;;5000293;28;20105;-61
2023/10/25 01:44:55;;;;;;;12.68;10.95;;;9.60;99.90;;;;;;5002158;28;20106;-62
2023/10/25 01:47:21;;;;;;;12.52;9.02;;;9.50;99.90;;;;;;4998111;28;20042;-62
2023/10/25 01:49:47;;;;;;;12.82;8.93;;;9.60;99.90;;;;;;4997040;28;20060;-62
2023/10/25 01:52:12;;;;;;;14.38;9.68;;;9.50;99.90;;;;;;4999613;28;20034;-62
2023/10/25 01:54:40;;;;;;;11.35;8.63;;;9.50;99.90;;;;;;5002534;28;20046;-62
2023/10/25 01:57:06;;;;;;;9.98;7.63;;;9.40;99.90;;;;;;5000307;28;20037;-62
2023/10/25 01:59:31;;;;;;;12.77;8.40;;;9.40;99.90;;;;;;4997768;28;20011;-61
2023/10/25 02:01:57;;;;;;;10.50;8.07;;;9.40;99.90;;;;;;5000672;28;20025;-61
2023/10/25 02:04:23;;;;;;;10.90;7.53;;;9.30;99.90;;;;;;5000352;28;20041;-62
2023/10/25 02:06:51;;;;;;;8.82;7.65;;;9.20;99.90;;;;;;5000414;28;20034;-62
2023/10/25 02:09:17;;;;;;;8.93;7.22;;;9.20;99.90;;;;;;4997885;28;20517;-63
2023/10/25 02:11:43;;;;;;;9.75;8.10;;;9.10;99.90;;;;;;4999601;28;20108;-62
2023/10/25 02:14:09;;;;;;;8.70;7.78;;;9.10;99.90;;;;;;4996702;28;20121;-61
2023/10/25 02:16:35;;;;;;;9.52;8.57;;;9.00;99.90;;;;;;4994162;28;20148;-62
2023/10/25 02:19:00;;;;;;;8.75;7.25;;;9.00;99.90;;;;;;4998252;28;20030;-61
2023/10/25 02:21:26;;;;;;;9.10;8.00;;;9.00;99.90;;;;;;4997758;28;20048;-62
2023/10/25 02:23:55;;;;;;;10.77;8.40;;;9.00;99.90;;;;;;5006244;28;20398;-61
2023/10/25 02:26:21;;;;;;;11.38;8.02;;;8.90;99.90;;;;;;5004028;28;20505;-61
2023/10/25 02:28:46;;;;;;;12.10;6.80;;;8.90;99.90;;;;;;4996441;28;20038;-61
2023/10/25 02:31:12;;;;;;;10.52;6.60;;;8.90;99.90;;;;;;5000390;28;20031;-62
2023/10/25 02:33:38;;;;;;;9.65;6.82;;;8.80;99.90;;;;;;5001774;28;20097;-62
2023/10/25 02:36:04;;;;;;;27.27;6.38;;;8.80;99.90;;;;;;4998305;28;20025;-62
2023/10/25 02:38:30;;;;;;;24.65;6.70;;;8.80;99.90;;;;;;4996669;28;20018;-62
2023/10/25 02:40:55;;;;;;;165.60;10.00;;;8.80;99.90;;;;;;4994416;28;20604;-62
2023/10/25 02:43:21;;;;;;;141.13;7.32;;;8.70;99.90;;;;;;4999532;28;20022;-63
2023/10/25 02:45:47;;;;;;;47.03;3.75;;;8.70;99.90;;;;;;5000530;28;20030;-62
2023/10/25 02:48:13;;;;;;;43.75;4.70;;;8.60;99.90;;;;;;4999034;28;20034;-62
2023/10/25 02:50:39;;;;;;;16.98;3.60;;;8.70;99.90;;;;;;4998912;28;20164;-63
2023/10/25 02:53:05;;;;;;;24.60;4.55;;;8.70;99.90;;;;;;5000085;28;20120;-63
2023/10/25 02:55:33;;;;;;;13.25;3.67;;;8.70;99.90;;;;;;4999496;28;20498;-63
2023/10/25 02:57:58;;;;;;;32.97;4.20;;;8.70;99.90;;;;;;4996521;28;20038;-61
2023/10/25 03:00:24;;;;;;;148.90;6.68;;;8.70;99.90;;;;;;4996019;28;20509;-61
2023/10/25 03:02:50;;;;;;;169.85;5.55;;;8.70;99.90;;;;;;4999574;28;20025;-62
2023/10/25 03:05:16;;;;;;;107.75;5.43;;;8.60;99.90;;;;;;4998023;28;20022;-62
2023/10/25 03:07:41;;;;;;;150.10;6.03;;;8.50;99.90;;;;;;4999904;28;20038;-62
2023/10/25 03:10:07;;;;;;;122.32;6.20;;;8.50;99.90;;;;;;5000493;28;20036;-62
2023/10/25 03:12:33;;;;;;;42.72;2.40;;;8.40;99.90;;;;;;5000057;28;20106;-63
2023/10/25 03:15:00;;;;;;;20.30;2.40;;;8.40;99.90;;;;;;4998387;28;20049;-63
2023/10/25 03:17:28;;;;;;;19.70;2.60;;;8.40;99.90;;;;;;4993967;28;20504;-61
2023/10/25 03:19:53;;;;;;;34.42;3.63;;;8.40;99.90;;;;;;5002867;28;20038;-61
2023/10/25 03:22:19;;;;;;;9.68;3.03;;;8.40;99.90;;;;;;4999086;28;20121;-62
2023/10/25 03:24:45;;;;;;;4.70;2.25;;;8.40;99.90;;;;;;4996817;28;20030;-62
2023/10/25 03:27:10;;;;;;;4.22;2.90;;;8.40;99.90;;;;;;4998912;28;20389;-60
2023/10/25 03:29:37;;;;;;;4.20;2.90;;;8.40;99.90;;;;;;4999769;28;20116;-62
2023/10/25 03:32:03;;;;;;;8.90;3.13;;;8.40;99.90;;;;;;4997029;28;20057;-61
2023/10/25 03:34:29;;;;;;;12.10;3.47;;;8.30;99.90;;;;;;4996927;28;20042;-61
2023/10/25 03:36:54;;;;;;;25.65;2.92;;;8.30;99.90;;;;;;4998618;28;20489;-61
2023/10/25 03:39:20;;;;;;;73.90;3.60;;;8.10;99.90;;;;;;4996311;28;20038;-62
2023/10/25 03:41:46;;;;;;;111.63;3.72;;;8.00;99.90;;;;;;4996857;28;20145;-62
2023/10/25 03:44:13;;;;;;;116.55;5.00;;;7.90;99.90;;;;;;4998771;28;20038;-62
2023/10/25 03:46:39;;;;;;;98.07;4.75;;;7.80;99.90;;;;;;4998242;28;20033;-61
2023/10/25 03:49:05;;;;;;;33.45;2.75;;;7.80;99.90;;;;;;4997225;28;20038;-62
2023/10/25 03:51:31;;;;;;;19.13;2.72;;;7.80;99.90;;;;;;4997457;28;20043;-62
2023/10/25 03:53:57;;;;;;;12.52;3.22;;;7.80;99.90;;;;;;4997106;28;20456;-62
2023/10/25 03:56:23;;;;;;;4.43;2.97;;;7.90;99.90;;;;;;5000981;28;20034;-62
2023/10/25 03:58:48;;;;;;;2.63;2.42;;;8.00;99.90;;;;;;4998884;28;20394;-62
2023/10/25 04:01:14;;;;;;;3.00;2.50;;;8.00;99.90;;;;;;4993562;28;20026;-60
2023/10/25 04:03:39;;;;;;;4.30;2.30;;;7.90;99.90;;;;;;4992934;28;20042;-62
2023/10/25 04:06:07;;;;;;;9.80;2.75;;;7.90;99.90;;;;;;4996475;28;20033;-62
2023/10/25 04:08:33;;;;;;;7.10;2.90;;;7.80;99.90;;;;;;4997775;28;20041;-62
2023/10/25 04:10:59;;;;;;;4.47;3.00;;;7.80;99.90;;;;;;4997288;28;20027;-62
2023/10/25 04:13:25;;;;;;;20.63;3.08;;;7.80;99.90;;;;;;4996832;28;20026;-61
2023/10/25 04:16:01;;;;;;;22.88;3.28;;;7.80;99.90;;;;;;4998136;28;20022;-63
2023/10/25 04:18:29;;;;;;;40.08;3.28;;;7.80;99.90;;;;;;4994647;28;20557;-62
2023/10/25 04:20:56;;;;;;;95.85;4.80;;;7.80;99.90;;;;;;4998153;28;20034;-62
2023/10/25 04:23:23;;;;;;;137.07;5.85;;;7.70;99.90;;;;;;4993872;28;20510;-62
2023/10/25 04:25:49;;;;;;;104.43;5.18;;;7.60;99.90;;;;;;4996625;28;20036;-62
2023/10/25 04:28:16;;;;;;;85.75;4.57;;;7.50;99.90;;;;;;4997069;28;20494;-62
2023/10/25 04:30:42;;;;;;;60.65;4.97;;;7.50;99.90;;;;;;4996798;28;20034;-62
2023/10/25 04:33:07;;;;;;;36.88;4.60;;;7.50;99.90;;;;;;4996784;28;20041;-62
2023/10/25 04:35:33;;;;;;;19.55;4.70;;;7.60;99.90;;;;;;4995332;28;20018;-62
2023/10/25 04:37:59;;;;;;;23.08;5.05;;;7.70;99.90;;;;;;4994727;28;20506;-62
2023/10/25 04:40:24;;;;;;;20.13;5.32;;;7.70;99.90;;;;;;4997192;28;20049;-62
2023/10/25 04:42:50;;;;;;;16.52;5.18;;;7.80;99.90;;;;;;4998311;28;20038;-61
2023/10/25 04:45:16;;;;;;;14.80;5.75;;;8.00;99.90;;;;;;4994149;28;20460;-62
2023/10/25 04:47:42;;;;;;;15.57;5.93;;;8.00;99.90;;;;;;4995244;28;20113;-62
2023/10/25 04:50:08;;;;;;;11.00;6.35;;;8.10;99.90;;;;;;4995695;28;20123;-63
2023/10/25 04:52:34;;;;;;;13.73;6.82;;;8.20;99.90;;;;;;4995793;28;20042;-61
2023/10/25 04:54:59;;;;;;;10.10;6.95;;;8.20;99.90;;;;;;4994275;28;20082;-60
2023/10/25 04:57:25;;;;;;;18.50;6.43;;;8.30;99.90;;;;;;4995523;28;20034;-61
2023/10/25 04:59:54;;;;;;;33.85;6.65;;;8.30;99.90;;;;;;4994159;28;20028;-63
2023/10/25 05:02:20;;;;;;;28.52;7.78;;;8.40;99.90;;;;;;4994505;28;20030;-62
2023/10/25 05:04:45;;;;;;;26.92;7.80;;;8.30;99.90;;;;;;4996306;28;20069;-62
2023/10/25 05:07:11;;;;;;;12.50;6.43;;;8.40;99.90;;;;;;4995906;28;20042;-61
2023/10/25 05:09:37;;;;;;;10.70;6.80;;;8.40;99.90;;;;;;4999153;28;20132;-62
2023/10/25 05:12:06;;;;;;;15.82;7.13;;;8.40;99.90;;;;;;4998952;28;20026;-61
2023/10/25 05:14:36;;;;;;;12.43;7.20;;;8.50;99.90;;;;;;4996175;28;20789;-62
2023/10/25 05:17:02;;;;;;;15.63;6.90;;;8.40;99.90;;;;;;4995520;28;20042;-61
2023/10/25 05:19:28;;;;;;;11.93;7.25;;;8.50;99.90;;;;;;4996608;28;20034;-63
2023/10/25 05:21:55;;;;;;;10.35;7.35;;;8.50;99.90;;;;;;4994415;28;20034;-62
2023/10/25 05:24:22;;;;;;;13.40;7.45;;;8.50;99.90;;;;;;4997991;28;20056;-62
2023/10/25 05:26:48;;;;;;;9.27;7.10;;;8.50;99.90;;;;;;4995222;28;20438;-61
2023/10/25 05:29:14;;;;;;;7.45;6.63;;;8.50;99.90;;;;;;4995605;28;20077;-61
2023/10/25 05:31:43;;;;;;;8.43;7.43;;;8.50;99.90;;;;;;4995075;28;20061;-60
2023/10/25 05:34:10;;;;;;;10.90;6.90;;;8.50;99.90;;;;;;4997666;28;20088;-62
2023/10/25 05:36:38;;;;;;;14.15;7.93;;;8.50;99.90;;;;;;4993403;28;20129;-62
2023/10/25 05:39:05;;;;;;;9.70;6.95;;;8.50;99.90;;;;;;4995442;28;20092;-62
2023/10/25 05:41:38;;;;;;;9.43;7.15;;;8.50;99.90;;;;;;4996167;28;20561;-62
2023/10/25 05:44:13;;;;;;;10.27;7.03;;;8.60;99.90;;;;;;4997617;28;20563;-62
2023/10/25 05:46:38;;;;;;;11.88;6.72;;;8.60;99.90;;;;;;4999121;28;20031;-62
2023/10/25 05:49:04;;;;;;;7.35;5.93;;;8.70;99.90;;;;;;4998059;28;20034;-62
2023/10/25 05:51:31;;;;;;;9.55;6.38;;;8.80;99.90;;;;;;5002263;28;20097;-62
2023/10/25 05:54:00;;;;;;;9.93;7.03;;;8.80;99.90;;;;;;4998684;28;20056;-62
2023/10/25 05:56:26;;;;;;;7.05;5.82;;;8.80;99.90;;;;;;4999799;28;20115;-62
2023/10/25 05:58:55;;;;;;;10.15;6.40;;;8.80;99.90;;;;;;4997902;28;20072;-62
2023/10/25 06:01:41;;;;;;;8.13;6.00;;;8.90;99.90;;;;;;5000594;28;20038;-62
2023/10/25 06:04:09;;;;;;;8.63;6.85;;;8.80;99.90;;;;;;4999652;28;20097;-61
2023/10/25 06:06:37;;;;;;;11.25;7.53;;;8.80;99.90;;;;;;5001006;28;20034;-61
2023/10/25 06:09:03;;;;;;;9.85;7.50;;;8.80;99.90;;;;;;4997633;28;20027;-61
2023/10/25 06:11:30;;;;;;;10.15;6.90;;;8.80;99.90;;;;;;4997552;28;20046;-62
2023/10/25 06:13:58;;;;;;;10.57;7.97;;;8.80;99.90;;;;;;5001947;28;20033;-63
2023/10/25 06:16:24;;;;;;;13.35;8.43;;;8.70;99.90;;;;;;5000847;28;20027;-62
2023/10/25 06:18:50;;;;;;;13.38;8.75;;;8.70;99.90;;;;;;5000234;28;20034;-63
2023/10/25 06:21:15;;;;;;;10.35;7.68;;;8.70;99.90;;;;;;5000722;28;20379;-62
2023/10/25 06:23:41;;;;;;;10.43;8.88;;;8.80;99.90;;;;;;5003674;28;20127;-62
2023/10/25 06:26:06;;;;;;;10.68;8.02;;;8.80;99.90;;;;;;5002931;28;20593;-61
2023/10/25 06:28:33;;;;;;;16.98;9.68;;;8.80;99.90;;;;;;4999679;28;20022;-62
2023/10/25 06:30:58;;;;;;;11.32;7.93;;;8.90;99.90;;;;;;4999775;28;20036;-62
2023/10/25 06:33:25;;;;;;;11.48;8.50;;;8.90;99.90;;;;;;5003311;28;20034;-62
2023/10/25 06:35:51;;;;;;;12.40;8.10;;;8.90;99.90;;;;;;5002118;28;20502;-62
2023/10/25 06:38:17;;;;;;;12.13;7.95;;;8.90;99.90;;;;;;5000611;28;20036;-62
2023/10/25 06:40:44;;;;;;;14.38;9.45;;;9.00;99.90;;;;;;5001053;28;20713;-62
2023/10/25 06:43:10;;;;;;;9.90;8.40;;;9.00;99.90;;;;;;5003119;28;20042;-62
2023/10/25 06:45:36;;;;;;;9.77;8.35;;;9.00;99.90;;;;;;5000726;28;20026;-62
2023/10/25 06:48:02;;;;;;;15.05;9.40;;;9.00;99.90;;;;;;5000305;28;20026;-61
2023/10/25 06:50:28;;;;;;;13.63;9.95;;;9.00;99.90;;;;;;5000931;28;20481;-61
2023/10/25 06:52:54;;;;;;;16.27;10.65;;;9.10;99.90;;;;;;5000422;28;20474;-63
2023/10/25 06:55:20;;;;;;;12.23;9.63;;;9.00;99.90;;;;;;4999622;28;20035;-61
2023/10/25 06:57:48;;;;;;;17.42;10.73;;;9.00;99.90;;;;;;5000867;28;20030;-61
2023/10/25 07:00:14;;;;;;;16.50;10.57;;;9.00;99.90;;;;;;5000816;28;20026;-62
2023/10/25 07:02:52;;;;;;;18.25;11.43;;;9.00;99.90;;;;;;5002278;28;20033;-61
2023/10/25 07:05:23;;;;;;;18.52;11.55;;;9.00;99.90;;;;;;5000457;28;20030;-61
2023/10/25 07:07:51;;;;;;;20.27;11.50;;;9.00;99.90;;;;;;4996224;28;20113;-61
2023/10/25 07:10:17;;;;;;;18.30;11.52;;;9.00;99.90;;;;;;4995931;28;20038;-62
2023/10/25 07:12:43;;;;;;;27.60;12.43;;;9.10;99.90;;;;;;5002677;28;20133;-62
2023/10/25 07:15:11;;;;;;;20.80;11.55;;;9.10;99.90;;;;;;4996916;28;20058;-61
2023/10/25 07:17:37;;;;;;;20.55;12.32;;;9.20;99.90;;;;;;5000480;28;20041;-62
2023/10/25 07:20:13;;;;;;;25.83;13.20;;;9.20;99.90;;;;;;4998236;28;20035;-62
2023/10/25 07:22:40;;;;;;;17.88;12.30;;;9.30;99.90;;;;;;4999206;28;20564;-61
2023/10/25 07:25:06;;;;;;;16.58;12.05;;;9.40;99.90;;;;;;5000314;28;20037;-62
2023/10/25 07:27:32;;;;;;;16.10;11.25;;;9.50;99.90;;;;;;4999167;28;20128;-61
2023/10/25 07:29:57;;;;;;;16.88;12.57;;;9.60;99.90;;;;;;4997836;28;20567;-62
2023/10/25 07:32:23;;;;;;;17.02;13.00;;;9.70;99.90;;;;;;4999723;28;20037;-61
2023/10/25 07:34:49;;;;;;;19.25;13.15;;;9.70;99.90;;;;;;4998502;28;20069;-61
2023/10/25 07:37:15;;;;;;;22.02;13.63;;;9.70;99.90;;;;;;5001559;28;20856;-62
2023/10/25 07:39:41;;;;;;;18.70;14.57;;;9.80;99.90;;;;;;5000797;28;20739;-61
2023/10/25 07:42:07;;;;;;;22.88;14.50;;;9.70;99.90;;;;;;5000390;28;20037;-62
2023/10/25 07:44:34;;;;;;;22.77;13.73;;;9.80;99.90;;;;;;4998906;28;20018;-63
2023/10/25 07:47:00;;;;;;;24.20;14.35;;;9.90;99.90;;;;;;4995466;28;20026;-61
2023/10/25 07:49:25;;;;;;;21.50;14.05;;;10.00;99.90;;;;;;4997426;28;20453;-62
2023/10/25 07:51:54;;;;;;;22.60;14.85;;;10.20;99.90;;;;;;4998637;28;20447;-62
2023/10/25 07:54:20;;;;;;;26.05;14.70;;;10.30;99.90;;;;;;4998363;28;20421;-63
2023/10/25 07:56:46;;;;;;;20.00;13.73;;;10.50;99.90;;;;;;4998215;28;20072;-62
2023/10/25 07:59:11;;;;;;;19.40;13.88;;;10.60;99.90;;;;;;4997372;28;20538;-62
2023/10/25 08:01:38;;;;;;;16.35;13.23;;;10.70;99.90;;;;;;4999711;28;20080;-62
2023/10/25 08:04:04;;;;;;;14.25;12.73;;;10.80;99.90;;;;;;4998917;28;20041;-62
2023/10/25 08:06:30;;;;;;;15.55;13.15;;;11.00;99.90;;;;;;4997321;28;20604;-62
2023/10/25 08:08:56;;;;;;;12.73;11.45;;;11.10;99.90;;;;;;4999862;28;20026;-62
2023/10/25 08:11:21;;;;;;;13.45;11.18;;;11.10;99.90;;;;;;5000604;28;20027;-61
2023/10/25 08:13:47;;;;;;;13.23;10.55;;;11.20;99.90;;;;;;5000715;28;20402;-62
2023/10/25 08:16:13;;;;;;;11.30;10.23;;;11.30;99.90;;;;;;5000098;28;20120;-62
2023/10/25 08:18:38;;;;;;;12.85;11.50;;;11.40;99.90;;;;;;4999473;28;20049;-62
2023/10/25 08:21:04;;;;;;;12.75;11.45;;;11.50;99.90;;;;;;5000809;28;20045;-62
2023/10/25 08:23:30;;;;;;;12.95;10.13;;;11.50;99.90;;;;;;5001428;28;20030;-62
2023/10/25 08:26:00;;;;;;;13.68;11.30;;;11.50;99.90;;;;;;4999411;28;20581;-61
2023/10/25 08:28:26;;;;;;;13.23;11.43;;;11.60;99.90;;;;;;4997640;28;20048;-59
2023/10/25 08:30:51;;;;;;;15.02;10.18;;;11.60;99.90;;;;;;4996662;28;20030;-61
2023/10/25 08:33:17;;;;;;;11.15;10.05;;;11.70;99.90;;;;;;5000565;28;20026;-61
2023/10/25 08:35:43;;;;;;;12.38;11.18;;;11.80;99.90;;;;;;4996548;28;20049;-62
2023/10/25 08:38:09;;;;;;;11.93;9.77;;;11.80;99.90;;;;;;4996826;28;20079;-61
2023/10/25 08:40:39;;;;;;;11.15;10.15;;;11.70;99.90;;;;;;4996680;28;20022;-60
2023/10/25 08:43:05;;;;;;;11.50;10.30;;;11.50;99.90;;;;;;4994887;28;20034;-62
2023/10/25 08:45:37;;;;;;;14.57;9.85;;;11.50;99.90;;;;;;4995834;28;20053;-61
2023/10/25 08:48:04;;;;;;;11.70;10.60;;;11.50;99.90;;;;;;4996249;28;20379;-61
2023/10/25 08:50:31;;;;;;;15.07;10.77;;;11.60;99.90;;;;;;4996080;28;20034;-62
2023/10/25 08:52:57;;;;;;;11.82;10.63;;;12.00;99.90;;;;;;4998460;28;20050;-61
2023/10/25 08:55:23;;;;;;;11.27;10.27;;;12.20;99.90;;;;;;5002581;28;20030;-61
2023/10/25 08:57:55;;;;;;;10.18;9.13;;;12.20;99.90;;;;;;4997674;28;20053;-61
2023/10/25 09:00:22;;;;;;;11.23;9.60;;;12.20;99.90;;;;;;4998282;28;20363;-61
2023/10/25 09:02:49;;;;;;;9.50;8.70;;;12.60;99.90;;;;;;4996496;28;20037;-62
2023/10/25 09:05:14;;;;;;;8.63;7.82;;;13.20;99.90;;;;;;4996510;28;20048;-61
2023/10/25 09:07:40;;;;;;;10.45;7.70;;;13.70;99.90;;;;;;5002993;28;20035;-61
2023/10/25 09:10:22;;;;;;;7.40;6.80;;;13.80;99.90;;;;;;4994052;28;20120;-60
2023/10/25 09:12:48;;;;;;;7.78;7.00;;;14.00;99.90;;;;;;5004356;28;20030;-62
2023/10/25 09:15:13;;;;;;;7.47;6.82;;;14.30;99.90;;;;;;4997401;28;20504;-61
2023/10/25 09:17:39;;;;;;;7.25;6.60;;;14.20;99.90;;;;;;4998010;28;20029;-60
2023/10/25 09:20:08;;;;;;;8.10;6.63;;;14.00;99.90;;;;;;4997164;28;20057;-62
2023/10/25 09:22:34;;;;;;;7.70;6.90;;;13.80;99.90;;;;;;5000105;28;20045;-61
2023/10/25 09:25:01;;;;;;;8.23;7.32;;;13.50;99.90;;;;;;4997251;28;20030;-59
2023/10/25 09:27:28;;;;;;;6.97;6.28;;;13.30;99.90;;;;;;5000484;28;20053;-60
2023/10/25 09:30:11;;;;;;;7.50;6.80;;;13.10;99.90;;;;;;5000899;28;20026;-61
2023/10/25 09:32:37;;;;;;;7.63;6.93;;;12.90;99.90;;;;;;5000505;28;20100;-61
2023/10/25 09:35:04;;;;;;;7.75;7.07;;;12.70;99.90;;;;;;5001817;28;20026;-61
2023/10/25 09:37:29;;;;;;;8.13;7.22;;;12.50;99.90;;;;;;4999698;28;20125;-61
2023/10/25 09:39:55;;;;;;;7.75;7.15;;;12.40;99.90;;;;;;4998384;28;20106;-59
2023/10/25 09:42:25;;;;;;;8.40;7.60;;;12.30;99.90;;;;;;5001524;28;20014;-61
2023/10/25 09:45:01;;;;;;;8.95;8.07;;;12.20;99.90;;;;;;5000026;28;20027;-62
2023/10/25 09:47:32;;;;;;;11.80;10.60;;;12.20;99.90;;;;;;4998430;28;20038;-61
2023/10/25 09:50:18;;;;;;;8.15;7.25;;;12.40;99.90;;;;;;5001768;28;20038;-61
2023/10/25 09:52:48;;;;;;;6.25;5.65;;;12.90;99.90;;;;;;5001287;28;20030;-61
2023/10/25 09:55:21;;;;;;;5.72;5.22;;;13.60;99.90;;;;;;5002153;28;20034;-60
2023/10/25 09:57:48;;;;;;;7.00;5.45;;;14.10;99.90;;;;;;4997871;28;20185;-62
2023/10/25 10:00:14;;;;;;;5.35;4.85;;;14.40;99.90;;;;;;4999899;28;20026;-62
2023/10/25 10:02:53;;;;;;;9.65;5.28;;;14.30;99.90;;;;;;4999060;28;20237;-62
2023/10/25 10:05:34;;;;;;;5.97;4.30;;;14.10;99.90;;;;;;4996194;28;20117;-61
2023/10/25 10:08:19;;;;;;;5.47;4.80;;;14.10;99.90;;;;;;4999907;28;20018;-61
2023/10/25 10:10:59;;;;;;;6.43;5.93;;;14.00;99.90;;;;;;5002539;28;20034;-61
2023/10/25 10:13:26;;;;;;;6.70;5.38;;;14.00;99.90;;;;;;4998776;28;20046;-61
2023/10/25 10:16:02;;;;;;;4.22;3.83;;;13.80;99.90;;;;;;5000654;28;20034;-61
2023/10/25 10:18:31;;;;;;;5.03;3.47;;;14.00;99.90;;;;;;5001118;28;20410;-61
2023/10/25 10:21:05;;;;;;;4.00;3.65;;;14.10;99.90;;;;;;5002502;28;20093;-61
2023/10/25 10:23:50;;;;;;;4.25;3.95;;;14.10;99.90;;;;;;5002513;28;20153;-61
2023/10/25 10:26:47;;;;;;;10.50;9.70;;;14.10;99.90;;;;;;4998166;28;20103;-61
2023/10/25 10:29:31;;;;;;;6.82;6.28;;;13.90;99.90;;;;;;4998503;28;20494;-60
2023/10/25 10:31:58;;;;;;;7.80;5.53;;;13.90;99.90;;;;;;5000528;28;20027;-60
2023/10/25 10:34:46;;;;;;;12.80;9.57;;;14.00;99.90;;;;;;4997587;28;20069;-61
2023/10/25 10:37:12;;;;;;;19.67;8.93;;;14.20;99.90;;;;;;4999222;28;20030;-59
2023/10/25 10:39:58;;;;;;;10.30;4.85;;;14.50;99.90;;;;;;4999939;28;20053;-62
2023/10/25 10:42:40;;;;;;;4.20;3.80;;;14.90;99.90;;;;;;5000506;28;20026;-61
2023/10/25 10:45:10;;;;;;;3.35;3.00;;;15.30;99.90;;;;;;4998390;28;20057;-62
2023/10/25 10:47:42;;;;;;;4.20;2.45;;;15.60;99.90;;;;;;5000170;28;20015;-60
2023/10/25 10:50:11;;;;;;;2.22;2.03;;;15.80;99.90;;;;;;5001369;28;20033;-61
2023/10/25 10:52:38;;;;;;;2.55;2.08;;;15.70;99.90;;;;;;4997272;28;20520;-61
2023/10/25 10:55:05;;;;;;;3.40;2.40;;;15.80;99.90;;;;;;5000333;28;20062;-60
2023/10/25 10:57:31;;;;;;;3.58;2.40;;;15.90;99.90;;;;;;4998780;28;20122;-62
2023/10/25 10:59:57;;;;;;;2.72;2.45;;;15.60;99.90;;;;;;4999057;28;20027;-60
2023/10/25 11:02:24;;;;;;;7.00;2.42;;;15.20;99.90;;;;;;4996770;28;20033;-61
2023/10/25 11:04:50;;;;;;;2.47;2.28;;;15.10;99.90;;;;;;4997815;28;20026;-62
2023/10/25 11:07:17;;;;;;;2.10;1.90;;;15.00;99.90;;;;;;4999268;28;20371;-61
2023/10/25 11:09:44;;;;;;;3.10;2.30;;;14.80;99.90;;;;;;5001484;28;20034;-61
2023/10/25 11:12:10;;;;;;;2.80;2.50;;;14.50;99.90;;;;;;4999080;28;20084;-61
2023/10/25 11:14:42;;;;;;;3.10;2.20;;;14.40;99.90;;;;;;4999586;28;20037;-61
2023/10/25 11:17:08;;;;;;;2.58;2.10;;;14.40;99.90;;;;;;4999688;28;20041;-61
2023/10/25 11:19:34;;;;;;;2.92;2.15;;;14.30;99.90;;;;;;4998098;28;20042;-61
2023/10/25 11:22:00;;;;;;;2.47;1.88;;;14.40;99.90;;;;;;4997467;28;20053;-61
2023/10/25 11:24:26;;;;;;;6.00;1.58;;;14.60;99.90;;;;;;4999118;28;20044;-61
2023/10/25 11:26:53;;;;;;;1.80;1.70;;;14.70;99.90;;;;;;4999644;28;20029;-60
2023/10/25 11:29:20;;;;;;;1.95;1.77;;;14.80;99.90;;;;;;4996836;28;20034;-62
2023/10/25 11:31:49;;;;;;;2.53;1.23;;;14.90;99.90;;;;;;4998490;28;20813;-62
2023/10/25 11:34:19;;;;;;;3.20;1.38;;;15.00;99.90;;;;;;5000354;28;20531;-61
2023/10/25 11:36:46;;;;;;;1.90;1.70;;;15.10;99.90;;;;;;4998884;28;20026;-59
2023/10/25 11:39:12;;;;;;;4.50;2.30;;;15.00;99.90;;;;;;4997160;28;20100;-62
2023/10/25 11:41:37;;;;;;;2.88;1.83;;;14.90;99.90;;;;;;4998687;28;20518;-61
2023/10/25 11:44:03;;;;;;;1.75;1.42;;;14.80;99.90;;;;;;4998951;28;20034;-62
2023/10/25 11:46:40;;;;;;;1.65;1.23;;;14.90;99.90;;;;;;4999663;28;20041;-61
2023/10/25 11:49:06;;;;;;;2.13;1.67;;;14.80;99.90;;;;;;4998677;28;20468;-61
2023/10/25 11:51:33;;;;;;;3.40;1.70;;;14.70;99.90;;;;;;4997640;28;20044;-61
2023/10/25 11:54:00;;;;;;;2.08;1.23;;;14.70;99.90;;;;;;4998753;28;20663;-61
2023/10/25 11:56:27;;;;;;;2.55;1.45;;;15.00;99.90;;;;;;4995167;28;20117;-61
2023/10/25 11:58:52;;;;;;;2.55;1.63;;;15.30;99.90;;;;;;4997701;28;20577;-62
2023/10/25 12:01:18;;;;;;;1.33;1.23;;;15.40;99.90;;;;;;4995074;28;20049;-62
2023/10/25 12:03:45;;;;;;;1.70;1.60;;;15.20;99.90;;;;;;5001611;28;20441;-62
2023/10/25 12:06:11;;;;;;;3.15;1.88;;;15.00;99.90;;;;;;4999760;28;20057;-62
2023/10/25 12:08:41;;;;;;;1.85;1.75;;;14.70;99.90;;;;;;4997862;28;20720;-61
2023/10/25 12:11:11;;;;;;;2.50;2.30;;;14.40;99.90;;;;;;5003729;28;20034;-61
2023/10/25 12:13:41;;;;;;;4.82;3.05;;;14.20;99.90;;;;;;4996936;28;20031;-62
2023/10/25 12:16:08;;;;;;;3.58;3.20;;;14.10;99.90;;;;;;4998200;28;20098;-62
2023/10/25 12:18:35;;;;;;;4.15;3.75;;;13.80;99.90;;;;;;4997472;28;20034;-62
2023/10/25 12:21:03;;;;;;;4.95;3.95;;;13.80;99.90;;;;;;5000218;28;20504;-60
2023/10/25 12:23:28;;;;;;;3.13;2.63;;;13.70;99.90;;;;;;4997972;28;20045;-62
2023/10/25 12:25:54;;;;;;;3.90;3.60;;;13.80;99.90;;;;;;4996699;28;20038;-60
2023/10/25 12:28:19;;;;;;;5.97;2.95;;;13.90;99.90;;;;;;4997076;28;20022;-62
2023/10/25 12:30:45;;;;;;;4.13;3.15;;;13.80;99.90;;;;;;4997178;28;20022;-62
2023/10/25 12:33:10;;;;;;;3.28;2.97;;;13.70;99.90;;;;;;4997907;28;20011;-61
2023/10/25 12:35:36;;;;;;;4.25;2.75;;;13.70;99.90;;;;;;4997145;28;20022;-61
2023/10/25 12:38:02;;;;;;;3.42;2.80;;;13.60;99.90;;;;;;4998635;28;20358;-60
2023/10/25 12:40:28;;;;;;;2.88;2.58;;;13.60;99.90;;;;;;4997501;28;20490;-61
2023/10/25 12:42:54;;;;;;;3.85;3.45;;;13.50;99.90;;;;;;4998489;28;20489;-61
2023/10/25 12:45:19;;;;;;;2.58;2.38;;;13.50;99.90;;;;;;4995147;28;20025;-61